Search for airport 
image banner adimage banner adimage banner ad
image banner ad

IA01 - Ridge

Located in Oakland, United States

ICAO - IA01, IATA -

Data provided by Airmate  

General information

Coordinates: N41°21'5" W95°27'59"
Elevation is 1300 feet MSL.
Magnetic variation is 06° East
View others Airports in Iowa

Operational data

Special qualification required
Current time UTC:
Current local time:
Weather at : KCBF - Council Bluffs Muni ( 26 km )
METAR: KCBF 181755Z AUTO 04015KT 10SM CLR 31/20 A2980 RMK AO2
View NOTAMs / SUP AIP / TFR affecting this airport [VIEW]
Communications frequencies: [VIEW]

Runways:

RWY identifierQFULength (ft)Width (ft)SurfaceLDA (ft)
14260075GRASS
32260075GRASS

Airport contact information

Address: Oakland United States

Satellite view of IA01